sensor_id;sensor_type;location;lat;lon;timestamp;pressure;altitude;pressure_sealevel;temperature;humidity
56825;BME280;42705;50.326;18.772;2023-04-24T00:02:10;97574.45;;;15.50;46.62
56825;BME280;42705;50.326;18.772;2023-04-24T00:07:32;97565.69;;;15.50;45.79
56825;BME280;42705;50.326;18.772;2023-04-24T00:12:54;97562.94;;;15.47;45.62
56825;BME280;42705;50.326;18.772;2023-04-24T00:18:16;97560.42;;;15.47;45.06
56825;BME280;42705;50.326;18.772;2023-04-24T00:23:38;97555.11;;;15.47;44.81
56825;BME280;42705;50.326;18.772;2023-04-24T00:29:00;97549.27;;;15.49;44.58
56825;BME280;42705;50.326;18.772;2023-04-24T00:34:22;97540.76;;;15.51;44.01
56825;BME280;42705;50.326;18.772;2023-04-24T00:39:44;97533.95;;;15.52;43.69
56825;BME280;42705;50.326;18.772;2023-04-24T00:45:06;97527.03;;;15.51;43.44
56825;BME280;42705;50.326;18.772;2023-04-24T00:50:28;97524.19;;;15.52;43.35
56825;BME280;42705;50.326;18.772;2023-04-24T00:55:51;97521.65;;;15.53;42.79
56825;BME280;42705;50.326;18.772;2023-04-24T01:01:14;97515.90;;;15.52;42.19
56825;BME280;42705;50.326;18.772;2023-04-24T01:06:36;97511.73;;;15.45;41.91
56825;BME280;42705;50.326;18.772;2023-04-24T01:11:58;97509.80;;;15.40;42.00
56825;BME280;42705;50.326;18.772;2023-04-24T01:17:20;97502.97;;;15.37;42.27
56825;BME280;42705;50.326;18.772;2023-04-24T01:22:42;97505.13;;;15.37;42.14
56825;BME280;42705;50.326;18.772;2023-04-24T01:28:04;97500.31;;;15.34;42.32
56825;BME280;42705;50.326;18.772;2023-04-24T01:33:26;97499.95;;;15.31;42.32
56825;BME280;42705;50.326;18.772;2023-04-24T01:38:48;97493.08;;;15.27;42.28
56825;BME280;42705;50.326;18.772;2023-04-24T01:44:10;97486.36;;;15.22;42.20
56825;BME280;42705;50.326;18.772;2023-04-24T01:49:32;97486.73;;;15.17;42.45
56825;BME280;42705;50.326;18.772;2023-04-24T01:54:54;97483.84;;;15.15;42.24
56825;BME280;42705;50.326;18.772;2023-04-24T02:00:18;97484.66;;;15.13;42.32
56825;BME280;42705;50.326;18.772;2023-04-24T02:05:43;97479.73;;;15.10;42.28
56825;BME280;42705;50.326;18.772;2023-04-24T02:11:05;97477.48;;;15.06;42.42
56825;BME280;42705;50.326;18.772;2023-04-24T02:16:27;97474.50;;;15.02;42.42
56825;BME280;42705;50.326;18.772;2023-04-24T02:21:52;97471.01;;;15.01;42.60
56825;BME280;42705;50.326;18.772;2023-04-24T02:27:14;97465.73;;;15.00;42.67
56825;BME280;42705;50.326;18.772;2023-04-24T02:32:36;97460.75;;;14.97;42.61
56825;BME280;42705;50.326;18.772;2023-04-24T02:37:58;97456.11;;;14.95;42.78
56825;BME280;42705;50.326;18.772;2023-04-24T02:43:20;97456.79;;;14.93;42.55
56825;BME280;42705;50.326;18.772;2023-04-24T02:48:42;97456.97;;;14.91;42.76
56825;BME280;42705;50.326;18.772;2023-04-24T02:54:04;97455.02;;;14.89;42.92
56825;BME280;42705;50.326;18.772;2023-04-24T02:59:26;97455.16;;;14.87;43.15
56825;BME280;42705;50.326;18.772;2023-04-24T03:04:50;97452.02;;;14.85;43.14
56825;BME280;42705;50.326;18.772;2023-04-24T03:10:12;97452.34;;;14.83;43.18
56825;BME280;42705;50.326;18.772;2023-04-24T03:15:33;97453.70;;;14.80;42.89
56825;BME280;42705;50.326;18.772;2023-04-24T03:20:55;97454.77;;;14.76;42.94
56825;BME280;42705;50.326;18.772;2023-04-24T03:26:17;97450.86;;;14.70;42.79
56825;BME280;42705;50.326;18.772;2023-04-24T03:31:49;97451.15;;;14.69;42.73
56825;BME280;42705;50.326;18.772;2023-04-24T03:37:11;97450.30;;;14.69;42.75
56825;BME280;42705;50.326;18.772;2023-04-24T03:42:38;97443.42;;;14.69;42.85
56825;BME280;42705;50.326;18.772;2023-04-24T03:48:01;97441.90;;;14.69;42.56
56825;BME280;42705;50.326;18.772;2023-04-24T03:53:24;97442.19;;;14.64;42.42
56825;BME280;42705;50.326;18.772;2023-04-24T03:58:46;97438.85;;;14.56;42.23
56825;BME280;42705;50.326;18.772;2023-04-24T04:04:08;97440.77;;;14.52;42.12
56825;BME280;42705;50.326;18.772;2023-04-24T04:09:31;97440.58;;;14.50;42.20
56825;BME280;42705;50.326;18.772;2023-04-24T04:14:55;97440.14;;;14.47;42.19
56825;BME280;42705;50.326;18.772;2023-04-24T04:20:17;97440.11;;;14.42;42.12
56825;BME280;42705;50.326;18.772;2023-04-24T04:25:39;97442.85;;;14.37;42.11
56825;BME280;42705;50.326;18.772;2023-04-24T04:31:01;97445.29;;;14.33;42.03
56825;BME280;42705;50.326;18.772;2023-04-24T04:36:23;97447.95;;;14.32;42.23
56825;BME280;42705;50.326;18.772;2023-04-24T04:41:50;97442.34;;;14.38;42.48
56825;BME280;42705;50.326;18.772;2023-04-24T04:47:13;97442.13;;;14.47;42.53
56825;BME280;42705;50.326;18.772;2023-04-24T04:52:36;97440.17;;;14.56;42.73
56825;BME280;42705;50.326;18.772;2023-04-24T04:58:10;97437.61;;;14.65;42.45
56825;BME280;42705;50.326;18.772;2023-04-24T05:03:33;97439.39;;;14.75;42.33
56825;BME280;42705;50.326;18.772;2023-04-24T05:08:59;97445.88;;;14.87;42.45
56825;BME280;42705;50.326;18.772;2023-04-24T05:14:27;97442.14;;;14.98;42.30
56825;BME280;42705;50.326;18.772;2023-04-24T05:19:49;97447.43;;;15.10;42.19
56825;BME280;42705;50.326;18.772;2023-04-24T05:25:11;97445.89;;;15.23;42.17
56825;BME280;42705;50.326;18.772;2023-04-24T05:30:43;97441.13;;;15.36;42.25
56825;BME280;42705;50.326;18.772;2023-04-24T05:36:06;97441.01;;;15.54;42.31
56825;BME280;42705;50.326;18.772;2023-04-24T05:41:28;97437.42;;;15.74;41.98
56825;BME280;42705;50.326;18.772;2023-04-24T05:46:50;97435.23;;;15.95;41.87
56825;BME280;42705;50.326;18.772;2023-04-24T05:52:12;97425.65;;;16.16;41.26
56825;BME280;42705;50.326;18.772;2023-04-24T05:57:35;97426.41;;;16.36;40.31
56825;BME280;42705;50.326;18.772;2023-04-24T06:02:59;97421.90;;;16.49;39.47
56825;BME280;42705;50.326;18.772;2023-04-24T06:08:22;97423.84;;;16.58;39.08
56825;BME280;42705;50.326;18.772;2023-04-24T06:13:44;97423.64;;;16.63;38.44
56825;BME280;42705;50.326;18.772;2023-04-24T06:19:24;97421.27;;;16.67;38.23
56825;BME280;42705;50.326;18.772;2023-04-24T06:24:46;97421.41;;;16.71;37.81
56825;BME280;42705;50.326;18.772;2023-04-24T06:30:10;97413.09;;;16.79;37.41
56825;BME280;42705;50.326;18.772;2023-04-24T06:35:31;97407.55;;;16.91;36.85
56825;BME280;42705;50.326;18.772;2023-04-24T06:40:53;97408.31;;;17.05;36.92
56825;BME280;42705;50.326;18.772;2023-04-24T06:46:15;97404.69;;;17.21;36.90
56825;BME280;42705;50.326;18.772;2023-04-24T06:51:36;97403.13;;;17.40;36.56
56825;BME280;42705;50.326;18.772;2023-04-24T06:57:00;97401.45;;;17.57;35.99
56825;BME280;42705;50.326;18.772;2023-04-24T07:02:22;97398.28;;;17.75;35.45
56825;BME280;42705;50.326;18.772;2023-04-24T07:07:44;97403.39;;;17.94;35.52
56825;BME280;42705;50.326;18.772;2023-04-24T07:13:06;97397.81;;;18.16;35.56
56825;BME280;42705;50.326;18.772;2023-04-24T07:18:28;97392.91;;;18.28;34.88
56825;BME280;42705;50.326;18.772;2023-04-24T07:23:50;97388.92;;;18.30;34.24
56825;BME280;42705;50.326;18.772;2023-04-24T07:29:12;97386.32;;;18.35;34.17
56825;BME280;42705;50.326;18.772;2023-04-24T07:34:35;97380.46;;;18.40;34.02
56825;BME280;42705;50.326;18.772;2023-04-24T07:39:57;97378.38;;;18.49;34.00
56825;BME280;42705;50.326;18.772;2023-04-24T07:45:18;97387.60;;;18.62;33.97
56825;BME280;42705;50.326;18.772;2023-04-24T07:50:40;97386.42;;;18.76;33.84
56825;BME280;42705;50.326;18.772;2023-04-24T07:56:02;97380.83;;;18.80;33.49
56825;BME280;42705;50.326;18.772;2023-04-24T08:01:24;97379.89;;;18.85;33.50
56825;BME280;42705;50.326;18.772;2023-04-24T08:06:47;97375.66;;;18.83;33.15
56825;BME280;42705;50.326;18.772;2023-04-24T08:12:08;97368.45;;;18.89;33.34
56825;BME280;42705;50.326;18.772;2023-04-24T08:17:30;97369.29;;;18.96;33.31
56825;BME280;42705;50.326;18.772;2023-04-24T08:22:52;97367.25;;;19.05;33.88
56825;BME280;42705;50.326;18.772;2023-04-24T08:28:14;97364.84;;;19.17;33.82
56825;BME280;42705;50.326;18.772;2023-04-24T08:33:41;97364.66;;;19.28;33.66
56825;BME280;42705;50.326;18.772;2023-04-24T08:39:06;97363.46;;;19.37;33.88
56825;BME280;42705;50.326;18.772;2023-04-24T08:44:28;97361.71;;;19.45;33.77
56825;BME280;42705;50.326;18.772;2023-04-24T08:49:49;97357.52;;;19.52;33.47
56825;BME280;42705;50.326;18.772;2023-04-24T08:55:13;97348.91;;;19.59;33.25
56825;BME280;42705;50.326;18.772;2023-04-24T09:00:38;97352.49;;;19.72;33.05
56825;BME280;42705;50.326;18.772;2023-04-24T09:06:00;97350.77;;;19.79;33.04
56825;BME280;42705;50.326;18.772;2023-04-24T09:11:22;97348.48;;;19.86;32.64
56825;BME280;42705;50.326;18.772;2023-04-24T09:16:46;97347.13;;;19.81;32.24
56825;BME280;42705;50.326;18.772;2023-04-24T09:22:09;97346.60;;;19.87;32.11
56825;BME280;42705;50.326;18.772;2023-04-24T09:27:31;97342.02;;;20.05;32.04
56825;BME280;42705;50.326;18.772;2023-04-24T09:33:12;97338.89;;;20.24;31.70
56825;BME280;42705;50.326;18.772;2023-04-24T09:38:37;97338.11;;;20.24;31.41
56825;BME280;42705;50.326;18.772;2023-04-24T09:49:33;97326.00;;;20.56;31.83
56825;BME280;42705;50.326;18.772;2023-04-24T09:54:56;97315.59;;;20.76;31.98
56825;BME280;42705;50.326;18.772;2023-04-24T10:00:21;97315.84;;;20.89;31.55
56825;BME280;42705;50.326;18.772;2023-04-24T10:05:44;97318.81;;;20.53;30.54
56825;BME280;42705;50.326;18.772;2023-04-24T10:11:07;97317.13;;;20.21;30.89
56825;BME280;42705;50.326;18.772;2023-04-24T10:16:30;97313.92;;;20.15;31.27
56825;BME280;42705;50.326;18.772;2023-04-24T10:21:52;97309.17;;;20.26;31.44
56825;BME280;42705;50.326;18.772;2023-04-24T10:27:16;97302.42;;;20.48;31.57
56825;BME280;42705;50.326;18.772;2023-04-24T10:32:37;97294.27;;;20.67;31.60
56825;BME280;42705;50.326;18.772;2023-04-24T10:38:01;97299.50;;;20.89;31.79
56825;BME280;42705;50.326;18.772;2023-04-24T10:43:24;97308.03;;;20.93;30.91
56825;BME280;42705;50.326;18.772;2023-04-24T10:48:53;97309.88;;;20.63;30.79
56825;BME280;42705;50.326;18.772;2023-04-24T11:05:50;97309.62;;;20.04;31.28
56825;BME280;42705;50.326;18.772;2023-04-24T11:11:13;97307.60;;;19.84;31.68
56825;BME280;42705;50.326;18.772;2023-04-24T11:22:04;97329.34;;;19.47;32.57
56825;BME280;42705;50.326;18.772;2023-04-24T11:27:41;97330.62;;;19.38;32.74
56825;BME280;42705;50.326;18.772;2023-04-24T11:33:03;97336.42;;;19.17;32.88
56825;BME280;42705;50.326;18.772;2023-04-24T11:38:26;97333.90;;;18.99;33.20
56825;BME280;42705;50.326;18.772;2023-04-24T11:43:48;97338.35;;;18.90;33.45
56825;BME280;42705;50.326;18.772;2023-04-24T11:49:10;97337.23;;;18.96;33.76
56825;BME280;42705;50.326;18.772;2023-04-24T11:54:33;97337.80;;;18.91;34.07
56825;BME280;42705;50.326;18.772;2023-04-24T11:59:55;97338.83;;;18.77;34.36
56825;BME280;42705;50.326;18.772;2023-04-24T12:10:42;97343.13;;;18.16;35.57
56825;BME280;42705;50.326;18.772;2023-04-24T12:16:04;97345.70;;;17.81;36.19
56825;BME280;42705;50.326;18.772;2023-04-24T12:21:26;97344.13;;;17.61;36.80
56825;BME280;42705;50.326;18.772;2023-04-24T12:26:51;97337.56;;;17.53;37.35
56825;BME280;42705;50.326;18.772;2023-04-24T12:32:17;97343.12;;;17.43;37.86
56825;BME280;42705;50.326;18.772;2023-04-24T12:37:41;97336.71;;;17.29;38.50
56825;BME280;42705;50.326;18.772;2023-04-24T12:43:14;97329.71;;;17.27;38.69
56825;BME280;42705;50.326;18.772;2023-04-24T12:48:37;97333.48;;;17.39;38.97
56825;BME280;42705;50.326;18.772;2023-04-24T12:53:58;97331.04;;;17.57;39.02
56825;BME280;42705;50.326;18.772;2023-04-24T12:59:20;97332.51;;;17.62;39.03
56825;BME280;42705;50.326;18.772;2023-04-24T13:04:42;97332.06;;;17.54;39.52
56825;BME280;42705;50.326;18.772;2023-04-24T13:10:03;97321.69;;;17.46;40.00
56825;BME280;42705;50.326;18.772;2023-04-24T13:15:25;97320.83;;;17.62;40.19
56825;BME280;42705;50.326;18.772;2023-04-24T13:20:47;97318.10;;;17.64;39.81
56825;BME280;42705;50.326;18.772;2023-04-24T13:26:09;97308.69;;;17.61;39.84
56825;BME280;42705;50.326;18.772;2023-04-24T13:31:30;97311.10;;;17.65;39.61
56825;BME280;42705;50.326;18.772;2023-04-24T13:36:52;97299.36;;;17.68;39.64
56825;BME280;42705;50.326;18.772;2023-04-24T13:42:14;97290.58;;;17.52;40.32
56825;BME280;42705;50.326;18.772;2023-04-24T13:47:36;97289.80;;;17.44;40.75
56825;BME280;42705;50.326;18.772;2023-04-24T13:52:58;97290.92;;;17.15;41.08
56825;BME280;42705;50.326;18.772;2023-04-24T13:58:21;97291.48;;;16.82;41.70
56825;BME280;42705;50.326;18.772;2023-04-24T14:03:43;97285.99;;;16.64;42.41
56825;BME280;42705;50.326;18.772;2023-04-24T14:09:05;97284.15;;;16.57;42.94
56825;BME280;42705;50.326;18.772;2023-04-24T14:14:27;97284.04;;;16.48;43.38
56825;BME280;42705;50.326;18.772;2023-04-24T14:19:51;97282.39;;;16.44;43.78
56825;BME280;42705;50.326;18.772;2023-04-24T14:25:13;97292.23;;;16.48;43.99
56825;BME280;42705;50.326;18.772;2023-04-24T14:30:35;97283.70;;;16.29;44.63
56825;BME280;42705;50.326;18.772;2023-04-24T14:35:58;97287.86;;;16.15;45.57
56825;BME280;42705;50.326;18.772;2023-04-24T14:41:20;97289.01;;;15.96;46.14
56825;BME280;42705;50.326;18.772;2023-04-24T14:46:42;97292.23;;;15.83;46.56
56825;BME280;42705;50.326;18.772;2023-04-24T14:52:05;97292.73;;;15.59;47.34
56825;BME280;42705;50.326;18.772;2023-04-24T14:57:27;97292.00;;;15.40;48.09
56825;BME280;42705;50.326;18.772;2023-04-24T15:02:49;97294.80;;;15.40;48.16
56825;BME280;42705;50.326;18.772;2023-04-24T15:08:11;97294.97;;;15.41;48.05
56825;BME280;42705;50.326;18.772;2023-04-24T15:13:33;97297.73;;;15.32;47.85
56825;BME280;42705;50.326;18.772;2023-04-24T15:18:54;97296.80;;;15.31;48.18
56825;BME280;42705;50.326;18.772;2023-04-24T15:24:18;97294.45;;;15.30;48.23
56825;BME280;42705;50.326;18.772;2023-04-24T15:29:40;97301.16;;;15.21;48.22
56825;BME280;42705;50.326;18.772;2023-04-24T15:35:02;97302.34;;;15.01;48.62
56825;BME280;42705;50.326;18.772;2023-04-24T15:40:23;97306.51;;;14.80;48.94
56825;BME280;42705;50.326;18.772;2023-04-24T15:45:45;97304.61;;;14.75;49.49
56825;BME280;42705;50.326;18.772;2023-04-24T15:51:07;97311.17;;;14.79;49.50
56825;BME280;42705;50.326;18.772;2023-04-24T15:56:29;97311.02;;;14.69;49.91
56825;BME280;42705;50.326;18.772;2023-04-24T16:01:51;97312.77;;;14.67;50.29
56825;BME280;42705;50.326;18.772;2023-04-24T16:07:14;97316.30;;;14.60;50.46
56825;BME280;42705;50.326;18.772;2023-04-24T16:12:36;97316.09;;;14.50;50.87
56825;BME280;42705;50.326;18.772;2023-04-24T16:17:57;97320.75;;;14.37;51.23
56825;BME280;42705;50.326;18.772;2023-04-24T16:23:19;97319.02;;;14.23;51.70
56825;BME280;42705;50.326;18.772;2023-04-24T16:28:41;97316.37;;;14.11;52.17
56825;BME280;42705;50.326;18.772;2023-04-24T16:34:03;97316.84;;;14.03;52.61
56825;BME280;42705;50.326;18.772;2023-04-24T16:39:25;97319.42;;;13.93;53.28
56825;BME280;42705;50.326;18.772;2023-04-24T16:44:48;97315.28;;;13.78;54.24
56825;BME280;42705;50.326;18.772;2023-04-24T16:50:09;97313.09;;;13.72;54.81
56825;BME280;42705;50.326;18.772;2023-04-24T16:55:31;97313.41;;;13.61;55.10
56825;BME280;42705;50.326;18.772;2023-04-24T17:00:53;97311.80;;;13.49;55.54
56825;BME280;42705;50.326;18.772;2023-04-24T17:06:15;97308.46;;;13.46;56.00
56825;BME280;42705;50.326;18.772;2023-04-24T17:11:36;97307.58;;;13.51;56.23
56825;BME280;42705;50.326;18.772;2023-04-24T17:16:58;97306.67;;;13.58;56.34
56825;BME280;42705;50.326;18.772;2023-04-24T17:22:20;97306.15;;;13.67;56.66
56825;BME280;42705;50.326;18.772;2023-04-24T17:27:41;97309.31;;;13.75;56.76
56825;BME280;42705;50.326;18.772;2023-04-24T17:33:03;97313.36;;;13.71;56.46
56825;BME280;42705;50.326;18.772;2023-04-24T17:38:25;97314.15;;;13.64;56.32
56825;BME280;42705;50.326;18.772;2023-04-24T17:43:47;97318.52;;;13.53;56.43
56825;BME280;42705;50.326;18.772;2023-04-24T17:49:08;97317.16;;;13.41;56.66
56825;BME280;42705;50.326;18.772;2023-04-24T17:54:31;97324.55;;;13.33;56.90
56825;BME280;42705;50.326;18.772;2023-04-24T17:59:53;97328.27;;;13.28;57.24
56825;BME280;42705;50.326;18.772;2023-04-24T18:05:15;97338.77;;;13.24;57.48
56825;BME280;42705;50.326;18.772;2023-04-24T18:10:37;97345.45;;;13.18;57.61
56825;BME280;42705;50.326;18.772;2023-04-24T18:15:58;97347.73;;;13.11;57.86
56825;BME280;42705;50.326;18.772;2023-04-24T18:21:20;97352.89;;;13.07;58.03
56825;BME280;42705;50.326;18.772;2023-04-24T18:26:42;97356.55;;;13.06;58.48
56825;BME280;42705;50.326;18.772;2023-04-24T18:32:03;97359.48;;;13.09;58.83
56825;BME280;42705;50.326;18.772;2023-04-24T18:37:25;97363.39;;;13.09;58.95
56825;BME280;42705;50.326;18.772;2023-04-24T18:42:49;97364.05;;;13.03;59.03
56825;BME280;42705;50.326;18.772;2023-04-24T18:48:11;97371.30;;;13.01;59.60
56825;BME280;42705;50.326;18.772;2023-04-24T18:53:33;97376.13;;;13.03;59.89
56825;BME280;42705;50.326;18.772;2023-04-24T18:58:54;97380.30;;;13.00;60.63
56825;BME280;42705;50.326;18.772;2023-04-24T19:04:16;97385.64;;;13.00;60.94
56825;BME280;42705;50.326;18.772;2023-04-24T19:09:41;97385.69;;;13.01;61.61
56825;BME280;42705;50.326;18.772;2023-04-24T19:15:02;97387.63;;;13.00;62.03
56825;BME280;42705;50.326;18.772;2023-04-24T19:20:25;97389.47;;;12.98;62.58
56825;BME280;42705;50.326;18.772;2023-04-24T19:25:47;97382.68;;;12.92;62.87
56825;BME280;42705;50.326;18.772;2023-04-24T19:31:09;97381.05;;;12.83;63.31
56825;BME280;42705;50.326;18.772;2023-04-24T19:36:31;97378.20;;;12.79;64.13
56825;BME280;42705;50.326;18.772;2023-04-24T19:41:54;97377.73;;;12.74;64.10
56825;BME280;42705;50.326;18.772;2023-04-24T19:47:17;97372.52;;;12.71;64.55
56825;BME280;42705;50.326;18.772;2023-04-24T19:52:39;97378.40;;;12.65;64.84
56825;BME280;42705;50.326;18.772;2023-04-24T19:58:01;97376.76;;;12.63;65.15
56825;BME280;42705;50.326;18.772;2023-04-24T20:03:23;97380.07;;;12.63;65.49
56825;BME280;42705;50.326;18.772;2023-04-24T20:08:44;97380.91;;;12.57;65.88
56825;BME280;42705;50.326;18.772;2023-04-24T20:14:06;97387.45;;;12.46;66.01
56825;BME280;42705;50.326;18.772;2023-04-24T20:19:28;97374.67;;;12.40;66.24
56825;BME280;42705;50.326;18.772;2023-04-24T20:24:50;97376.26;;;12.46;66.08
56825;BME280;42705;50.326;18.772;2023-04-24T20:30:12;97387.02;;;12.44;66.17
56825;BME280;42705;50.326;18.772;2023-04-24T20:35:33;97395.10;;;12.39;66.25
56825;BME280;42705;50.326;18.772;2023-04-24T20:40:55;97405.56;;;12.32;66.29
56825;BME280;42705;50.326;18.772;2023-04-24T20:46:17;97408.69;;;12.19;66.49
56825;BME280;42705;50.326;18.772;2023-04-24T20:51:39;97410.80;;;12.09;66.39
56825;BME280;42705;50.326;18.772;2023-04-24T20:57:01;97416.30;;;12.00;66.82
56825;BME280;42705;50.326;18.772;2023-04-24T21:02:22;97421.24;;;11.92;67.01
56825;BME280;42705;50.326;18.772;2023-04-24T21:07:44;97420.88;;;11.84;67.15
56825;BME280;42705;50.326;18.772;2023-04-24T21:13:06;97425.48;;;11.80;67.48
56825;BME280;42705;50.326;18.772;2023-04-24T21:18:28;97428.59;;;11.78;67.69
56825;BME280;42705;50.326;18.772;2023-04-24T21:23:50;97427.39;;;11.76;67.60
56825;BME280;42705;50.326;18.772;2023-04-24T21:29:12;97431.39;;;11.81;67.39
56825;BME280;42705;50.326;18.772;2023-04-24T21:34:33;97431.73;;;11.84;67.54
56825;BME280;42705;50.326;18.772;2023-04-24T21:39:55;97430.04;;;11.77;67.16
56825;BME280;42705;50.326;18.772;2023-04-24T21:45:17;97436.50;;;11.68;67.22
56825;BME280;42705;50.326;18.772;2023-04-24T21:50:39;97440.44;;;11.69;67.73
56825;BME280;42705;50.326;18.772;2023-04-24T21:56:00;97445.15;;;11.68;67.75
56825;BME280;42705;50.326;18.772;2023-04-24T22:01:22;97444.50;;;11.62;67.66
56825;BME280;42705;50.326;18.772;2023-04-24T22:06:44;97439.42;;;11.57;67.81
56825;BME280;42705;50.326;18.772;2023-04-24T22:12:06;97441.77;;;11.55;68.15
56825;BME280;42705;50.326;18.772;2023-04-24T22:17:27;97438.80;;;11.53;68.02
56825;BME280;42705;50.326;18.772;2023-04-24T22:22:49;97435.53;;;11.49;68.25
56825;BME280;42705;50.326;18.772;2023-04-24T22:28:11;97433.52;;;11.53;68.07
56825;BME280;42705;50.326;18.772;2023-04-24T22:33:32;97434.27;;;11.55;68.49
56825;BME280;42705;50.326;18.772;2023-04-24T22:38:54;97436.80;;;11.54;68.40
56825;BME280;42705;50.326;18.772;2023-04-24T22:44:16;97434.75;;;11.50;68.32
56825;BME280;42705;50.326;18.772;2023-04-24T22:49:37;97439.64;;;11.55;68.69
56825;BME280;42705;50.326;18.772;2023-04-24T22:55:00;97441.19;;;11.57;68.71
56825;BME280;42705;50.326;18.772;2023-04-24T23:00:22;97439.90;;;11.50;68.85
56825;BME280;42705;50.326;18.772;2023-04-24T23:05:44;97433.91;;;11.40;68.71
56825;BME280;42705;50.326;18.772;2023-04-24T23:11:05;97429.96;;;11.35;69.06
56825;BME280;42705;50.326;18.772;2023-04-24T23:16:27;97432.26;;;11.33;69.24
56825;BME280;42705;50.326;18.772;2023-04-24T23:21:51;97426.65;;;11.27;68.93
56825;BME280;42705;50.326;18.772;2023-04-24T23:27:12;97422.38;;;11.29;69.42
56825;BME280;42705;50.326;18.772;2023-04-24T23:32:34;97418.10;;;11.33;69.73
56825;BME280;42705;50.326;18.772;2023-04-24T23:37:56;97423.06;;;11.42;69.71
56825;BME280;42705;50.326;18.772;2023-04-24T23:43:17;97428.81;;;11.52;69.63
56825;BME280;42705;50.326;18.772;2023-04-24T23:48:39;97430.38;;;11.55;69.26
56825;BME280;42705;50.326;18.772;2023-04-24T23:54:00;97426.77;;;11.48;69.08
56825;BME280;42705;50.326;18.772;2023-04-24T23:59:22;97427.14;;;11.46;69.22
